Strona główna
METAR-TAF:

METAR-TAF

Lotnisko :

Army Air Corps Middle Wallop

Middle Wallop, Anglia

Szerokość geograficzna: 51-09N, Długość geograficzna: 001-34W, wysokość: 91 m

Aktualna obserwacja pogody

Raport powstał 1 godzina i 0 minut temu, godzina 07:50 UTC
Wiatr 9 kt od północ
Temperatura 11°C
Wilgotność 76%
Ciśnienie 1005 hPa
Widzialność 10 km lub więcej

METAR: EGVP 040750Z AUTO 36009KT 9999 OVC018/// 11/07 Q1005

czas: 09:50 (08:50 UTC)

Prognoza

Raport powstał 13 godziny i 11 minut temu, godzina 19:39 UTC
Prognoza ważna od 03 godzina 21 UTC do 04 godzina 02 UTC
Wiatr 10 kt od północno-północny wschód
Widzialność 10 km lub więcej
Mało chmury na wysokości 1300 ft
Przerywane chmury na wysokości 3400 ft
Prawdopodobieństwo 30% :
Przejściowo
od 03 godzina 21 UTC do 03 godzina 22 UTC
Rozproszone chmury na wysokości 1300 ft
Stopniowe zmiany
od 03 godzina 22 UTC do 03 godzina 24 UTC
Przerywane chmury na wysokości 1200 ft

TAF: EGVP 031939Z 0321/0402 02010KT 9999 FEW013 BKN034 PROB30 TEMPO 0321/0322 SCT013 BECMG 0322/0324 BKN012

Obserwacja i prognoza pogody dla ponad 4000 lotnisk (raport METAR i TAF).

Dostępne stacje oznaczono żółtymi i czerwonymi punktami na mapie.

Najedź kursorem aby zobaczyć nazwę stacji.

Kliknij aby zobaczyć obserwacje i prognozy pogody.

Aby zmienić mapę: kliknij na zielony przycisk z czarnym krzyżykiem, aby powiększyć; na zielony przycisk z myślnikiem, aby pomniejszyć; na zielone strzałki, aby przejść do map sąsiednich.


METAR-TAF: